Time;durP1;ratioP1;P1;durP2;ratioP2;P2;SDS_P1;SDS_P2;PMS_P1;PMS_P2;Temp;Humidity;BMP_temperature;BMP_pressure;BME280_temperature;BME280_humidity;BME280_pressure;Samples;Min_cycle;Max_cycle;Signal;HPM_P1;HPM_P2
2023/01/21 00:01:13;;;;;;;15.95;5.22;;;;;;;4.64;83.98;101585.44;5067664;28;20052;-67
2023/01/21 00:03:40;;;;;;;14.57;5.43;;;;;;;4.87;83.56;101598.00;5074989;28;20049;-67
2023/01/21 00:06:08;;;;;;;14.57;5.10;;;;;;;4.76;83.78;101597.03;5073035;28;20048;-67
2023/01/21 00:08:35;;;;;;;16.65;4.72;;;;;;;4.93;85.67;101584.19;5072735;28;20057;-67
2023/01/21 00:11:07;;;;;;;14.77;4.80;;;;;;;4.65;83.58;101594.44;5074254;28;20060;-67
2023/01/21 00:13:35;;;;;;;18.05;4.85;;;;;;;4.60;85.16;101596.03;5057523;28;20396;-67
2023/01/21 00:16:03;;;;;;;12.65;4.00;;;;;;;5.20;84.73;101582.28;5056119;28;20056;-67
2023/01/21 00:18:32;;;;;;;19.40;4.90;;;;;;;5.18;83.91;101583.63;5078002;28;20056;-67
2023/01/21 00:20:59;;;;;;;16.65;5.05;;;;;;;4.85;82.54;101586.50;5072398;28;20064;-67
2023/01/21 00:23:27;;;;;;;18.08;4.72;;;;;;;5.16;84.04;101586.59;5060746;28;20071;-67
2023/01/21 00:25:59;;;;;;;14.50;4.63;;;;;;;4.71;84.51;101580.59;5075064;28;20422;-66
2023/01/21 00:28:28;;;;;;;16.73;4.05;;;;;;;5.62;82.75;101590.63;5059289;28;20066;-69
2023/01/21 00:30:58;;;;;;;13.60;4.20;;;;;;;4.80;83.04;101600.91;5064245;28;20045;-66
2023/01/21 00:33:26;;;;;;;13.77;4.57;;;;;;;4.77;84.36;101604.16;5072554;28;20045;-66
2023/01/21 00:36:08;;;;;;;10.38;3.60;;;;;;;4.84;83.81;101601.25;5071892;28;20648;-69
2023/01/21 00:38:35;;;;;;;10.65;4.00;;;;;;;4.67;84.69;101604.03;5074001;28;20055;-66
2023/01/21 00:41:06;;;;;;;12.88;3.78;;;;;;;4.51;85.66;101605.75;5072410;28;20519;-67
2023/01/21 00:43:34;;;;;;;17.30;4.45;;;;;;;4.58;86.21;101606.34;5076865;28;20052;-67
2023/01/21 00:46:02;;;;;;;9.98;3.50;;;;;;;4.57;85.45;101621.09;5070372;28;20049;-67
2023/01/21 00:48:30;;;;;;;9.20;3.55;;;;;;;4.51;86.64;101619.38;5089472;28;20056;-67
2023/01/21 00:50:59;;;;;;;12.05;4.10;;;;;;;4.40;87.95;101620.31;5072729;28;20048;-67
2023/01/21 00:53:29;;;;;;;12.70;3.75;;;;;;;4.48;87.26;101628.03;5075782;28;20057;-67
2023/01/21 00:56:04;;;;;;;11.85;3.70;;;;;;;4.57;87.26;101642.91;5075548;28;20049;-67
2023/01/21 00:58:32;;;;;;;13.75;4.22;;;;;;;4.66;87.02;101631.56;5059603;28;20063;-67
2023/01/21 01:01:00;;;;;;;17.48;4.10;;;;;;;4.94;86.19;101634.13;5072543;28;20063;-67
2023/01/21 01:03:28;;;;;;;10.73;3.78;;;;;;;4.82;85.14;101630.69;5077815;28;20045;-67
2023/01/21 01:06:01;;;;;;;16.13;4.15;;;;;;;4.75;85.62;101641.78;5069661;28;20052;-69
2023/01/21 01:08:28;;;;;;;8.65;4.03;;;;;;;4.84;85.80;101634.81;5077066;28;20521;-67
2023/01/21 01:10:56;;;;;;;8.98;3.65;;;;;;;4.58;87.12;101641.81;5075595;28;20040;-67
2023/01/21 01:13:23;;;;;;;8.43;3.80;;;;;;;4.57;87.66;101647.53;5075467;28;20537;-67
2023/01/21 01:15:54;;;;;;;10.07;4.30;;;;;;;4.89;86.84;101643.06;5075740;28;20049;-67
2023/01/21 01:18:23;;;;;;;9.80;3.67;;;;;;;4.95;85.62;101641.25;5075657;28;20052;-69
2023/01/21 01:20:51;;;;;;;15.60;4.57;;;;;;;4.83;86.10;101660.44;5068653;28;20048;-67
2023/01/21 01:23:18;;;;;;;15.20;4.38;;;;;;;4.73;86.67;101654.03;5077428;28;20044;-68
2023/01/21 01:26:01;;;;;;;12.80;4.93;;;;;;;4.80;86.38;101657.41;5075018;28;20510;-66
2023/01/21 01:28:29;;;;;;;14.30;5.30;;;;;;;4.96;85.77;101662.81;5040782;28;20045;-67
2023/01/21 01:30:57;;;;;;;13.60;5.47;;;;;;;4.76;85.15;101650.81;5046636;28;20044;-67
2023/01/21 01:33:25;;;;;;;10.93;5.28;;;;;;;4.89;84.56;101655.91;5074343;28;20047;-67
2023/01/21 01:35:52;;;;;;;15.15;5.07;;;;;;;4.93;83.98;101659.78;5070122;28;20044;-67
2023/01/21 01:38:21;;;;;;;13.10;6.03;;;;;;;4.80;83.46;101671.88;5074993;28;20056;-67
2023/01/21 01:40:51;;;;;;;12.30;5.75;;;;;;;4.71;84.70;101680.78;5074152;28;20052;-67
2023/01/21 01:43:26;;;;;;;15.60;6.67;;;;;;;4.67;84.20;101675.00;5075595;28;20048;-67
2023/01/21 01:45:54;;;;;;;10.48;6.13;;;;;;;4.72;83.58;101668.75;5071339;28;20786;-67
2023/01/21 01:48:26;;;;;;;13.88;6.18;;;;;;;4.75;83.49;101681.91;5074295;28;20067;-67
2023/01/21 01:50:56;;;;;;;12.40;7.13;;;;;;;4.87;82.76;101680.72;5055114;28;20048;-67
2023/01/21 01:53:24;;;;;;;12.77;7.47;;;;;;;4.83;81.29;101692.41;5057143;28;20587;-66
2023/01/21 01:55:52;;;;;;;10.93;7.22;;;;;;;4.74;80.40;101715.72;5057487;28;20053;-67
2023/01/21 01:58:20;;;;;;;12.52;8.18;;;;;;;4.73;80.74;101712.16;5073585;28;20052;-68
2023/01/21 02:00:47;;;;;;;16.35;8.57;;;;;;;4.60;79.76;101718.78;5073314;28;20060;-67
2023/01/21 02:06:02;;;;;;;14.18;8.63;;;;;;;4.67;79.78;101720.53;5071522;28;20057;-67
2023/01/21 02:08:31;;;;;;;11.77;8.82;;;;;;;4.65;79.30;101725.41;5058154;28;20047;-67
2023/01/21 02:10:59;;;;;;;11.27;8.07;;;;;;;4.82;78.86;101715.28;5069840;28;20048;-67
2023/01/21 02:13:28;;;;;;;14.25;8.73;;;;;;;4.79;77.87;101729.44;5056594;28;20641;-67
2023/01/21 02:16:05;;;;;;;16.42;9.65;;;;;;;4.54;78.94;101725.25;5090592;28;20063;-66
2023/01/21 02:18:53;;;;;;;14.63;9.00;;;;;;;4.63;79.00;101738.47;5075938;28;20052;-66
2023/01/21 02:21:30;;;;;;;13.57;8.27;;;;;;;4.75;77.86;101731.03;5049930;28;20059;-67
2023/01/21 02:24:09;;;;;;;12.48;8.55;;;;;;;4.80;76.54;101744.75;5074802;28;20053;-67
2023/01/21 02:27:09;;;;;;;11.90;8.82;;;;;;;4.51;77.75;101763.13;5075881;28;20060;-67
2023/01/21 02:30:11;;;;;;;13.57;7.70;;;;;;;4.59;76.90;101760.81;5072317;28;20041;-67
2023/01/21 02:33:16;;;;;;;10.88;7.88;;;;;;;4.48;75.11;101764.44;5057657;28;20512;-67
2023/01/21 02:36:19;;;;;;;12.00;7.75;;;;;;;4.28;75.26;101788.66;5054560;28;20067;-67
2023/01/21 02:39:24;;;;;;;10.90;7.03;;;;;;;4.43;73.58;101790.78;5035181;28;20071;-67
2023/01/21 02:42:10;;;;;;;10.35;6.03;;;;;;;4.20;72.57;101799.94;5068243;28;20061;-67
2023/01/21 02:44:59;;;;;;;7.85;5.95;;;;;;;4.29;72.59;101803.94;5074647;28;20044;-67
2023/01/21 02:47:54;;;;;;;15.07;7.03;;;;;;;4.08;74.00;101799.19;5054526;28;20060;-67
2023/01/21 02:50:29;;;;;;;12.95;8.48;;;;;;;4.09;75.01;101836.28;5059914;28;20052;-67
2023/01/21 02:52:58;;;;;;;11.07;8.30;;;;;;;3.57;76.56;101844.72;5057182;28;20129;-67
2023/01/21 02:55:36;;;;;;;12.63;8.57;;;;;;;3.35;77.01;101833.63;5061472;28;20389;-68
2023/01/21 02:58:07;;;;;;;13.98;9.13;;;;;;;3.62;76.39;101832.06;5069387;28;20057;-67
2023/01/21 03:01:10;;;;;;;17.08;9.15;;;;;;;3.70;75.51;101845.28;5057664;28;20063;-68
2023/01/21 03:03:51;;;;;;;12.52;9.32;;;;;;;3.34;74.91;101841.00;5058051;28;20056;-68
2023/01/21 03:06:34;;;;;;;13.23;10.23;;;;;;;3.63;74.71;101847.31;5067848;28;20065;-67
2023/01/21 03:09:09;;;;;;;11.65;8.98;;;;;;;3.54;73.83;101870.53;5068397;28;20408;-67
2023/01/21 03:11:36;;;;;;;13.43;9.32;;;;;;;3.07;74.96;101858.00;5066230;28;20052;-68
2023/01/21 03:17:12;;;;;;;14.15;10.27;;;;;;;3.12;75.82;101860.88;5071710;28;20079;-68
2023/01/21 03:19:52;;;;;;;13.93;9.70;;;;;;;2.80;76.23;101868.53;5056908;28;20044;-67
2023/01/21 03:22:23;;;;;;;14.15;10.30;;;;;;;2.77;76.79;101868.19;5071681;28;20052;-67
2023/01/21 03:24:52;;;;;;;15.20;10.93;;;;;;;2.83;76.95;101873.50;5045954;28;20504;-66
2023/01/21 03:27:22;;;;;;;14.48;10.50;;;;;;;2.85;75.98;101867.81;5071288;28;20052;-67
2023/01/21 03:29:53;;;;;;;14.73;10.85;;;;;;;2.87;76.05;101892.91;5057255;28;20049;-68
2023/01/21 03:32:21;;;;;;;16.02;11.63;;;;;;;3.05;76.19;101885.47;5054623;28;20400;-68
2023/01/21 03:34:50;;;;;;;14.40;10.07;;;;;;;2.90;74.23;101878.84;5073669;28;20053;-68
2023/01/21 03:37:46;;;;;;;15.73;10.75;;;;;;;3.08;74.00;101890.47;5057064;28;20515;-66
2023/01/21 03:40:22;;;;;;;15.35;10.25;;;;;;;2.92;73.49;101896.59;5063133;28;20052;-68
2023/01/21 03:42:51;;;;;;;15.35;10.25;;;;;;;2.84;73.46;101901.56;5073684;28;20040;-68
2023/01/21 03:45:45;;;;;;;14.33;9.80;;;;;;;3.00;73.84;101895.44;5064672;28;20041;-68
2023/01/21 03:48:19;;;;;;;16.10;9.52;;;;;;;3.05;72.41;101904.53;5075549;28;20057;-68
2023/01/21 03:50:53;;;;;;;16.60;10.95;;;;;;;2.89;72.68;101912.56;5075112;28;20056;-67
2023/01/21 03:53:21;;;;;;;16.30;11.57;;;;;;;2.72;73.13;101917.81;5060205;28;20385;-67
2023/01/21 03:55:50;;;;;;;17.05;11.60;;;;;;;2.89;73.14;101912.56;5059740;28;20040;-68
2023/01/21 03:58:17;;;;;;;18.65;11.45;;;;;;;2.71;72.40;101908.03;5060516;28;20076;-67
2023/01/21 04:00:45;;;;;;;18.52;11.20;;;;;;;2.68;71.78;101905.78;5075578;28;20051;-67
2023/01/21 04:03:12;;;;;;;17.13;11.30;;;;;;;2.58;72.26;101913.66;5076838;28;20040;-67
2023/01/21 04:05:40;;;;;;;18.20;11.75;;;;;;;2.69;72.01;101912.03;5073861;28;20061;-67
2023/01/21 04:08:08;;;;;;;17.45;11.68;;;;;;;2.73;71.68;101918.66;5068547;28;20064;-67
2023/01/21 04:10:35;;;;;;;19.88;12.45;;;;;;;2.96;71.21;101922.28;5060126;28;20068;-68
2023/01/21 04:13:03;;;;;;;17.40;11.88;;;;;;;2.96;70.51;101914.13;5076690;28;20053;-68
2023/01/21 04:15:30;;;;;;;16.50;11.30;;;;;;;2.86;70.42;101932.09;5055456;28;20419;-67
2023/01/21 04:17:57;;;;;;;18.52;11.18;;;;;;;2.61;71.19;101923.25;5078526;28;20040;-67
2023/01/21 04:20:25;;;;;;;18.33;12.10;;;;;;;2.58;71.46;101926.44;5058493;28;20059;-67
2023/01/21 04:22:52;;;;;;;17.30;12.18;;;;;;;2.66;71.29;101932.38;5078574;28;20052;-67
2023/01/21 04:25:19;;;;;;;21.27;12.90;;;;;;;2.76;71.53;101931.78;5076988;28;20063;-67
2023/01/21 04:27:47;;;;;;;19.02;11.98;;;;;;;2.66;70.87;101945.97;5073669;28;20048;-67
2023/01/21 04:30:15;;;;;;;19.00;12.18;;;;;;;2.32;72.14;101948.56;5060345;28;20476;-67
2023/01/21 04:32:42;;;;;;;20.10;11.98;;;;;;;2.55;71.62;101935.88;5076456;28;20045;-67
2023/01/21 04:35:10;;;;;;;18.40;12.55;;;;;;;2.41;71.56;101949.91;5077954;28;20045;-67
2023/01/21 04:37:37;;;;;;;19.95;12.77;;;;;;;2.53;71.21;101962.47;5058550;28;20052;-67
2023/01/21 04:40:05;;;;;;;21.15;12.98;;;;;;;2.36;71.54;101966.88;5057676;28;20053;-67
2023/01/21 04:42:32;;;;;;;19.00;12.98;;;;;;;2.11;71.87;101961.53;5070570;28;20406;-67
2023/01/21 04:45:00;;;;;;;18.98;12.13;;;;;;;2.08;72.42;101951.13;5077259;28;20041;-67
2023/01/21 04:47:27;;;;;;;17.27;12.55;;;;;;;2.01;72.42;101961.25;5077408;28;20163;-67
2023/01/21 04:49:55;;;;;;;19.20;12.98;;;;;;;2.05;72.70;101964.34;5072728;28;20411;-67
2023/01/21 04:52:22;;;;;;;19.05;12.55;;;;;;;1.91;72.45;101957.41;5074169;28;20048;-67
2023/01/21 04:54:50;;;;;;;18.33;12.77;;;;;;;2.03;72.79;101964.59;5076438;28;20044;-67
2023/01/21 04:57:17;;;;;;;20.42;13.48;;;;;;;1.88;73.58;101961.38;5076301;28;20049;-69
2023/01/21 04:59:45;;;;;;;19.50;13.45;;;;;;;2.13;73.03;101966.75;5059050;28;20644;-67
2023/01/21 05:02:12;;;;;;;20.83;13.65;;;;;;;2.08;72.75;101972.88;5073927;28;20550;-67
2023/01/21 05:04:40;;;;;;;17.42;11.73;;;;;;;1.87;72.87;101977.91;5077653;28;20047;-68
2023/01/21 05:07:10;;;;;;;21.02;13.82;;;;;;;2.04;73.38;101979.00;5070177;28;20086;-68
2023/01/21 05:09:38;;;;;;;19.70;13.02;;;;;;;2.03;72.50;101969.19;5075911;28;20040;-68
2023/01/21 05:12:05;;;;;;;20.70;13.60;;;;;;;2.06;73.13;101969.56;5075822;28;20057;-67
2023/01/21 05:14:33;;;;;;;20.80;13.80;;;;;;;1.90;73.19;101969.34;5041929;28;20045;-67
2023/01/21 05:17:00;;;;;;;20.25;13.73;;;;;;;2.00;73.18;101975.06;5059339;28;20079;-67
2023/01/21 05:19:28;;;;;;;21.55;14.43;;;;;;;1.85;73.66;101982.75;5075470;28;20052;-67
2023/01/21 05:21:55;;;;;;;23.50;15.88;;;;;;;1.79;73.99;101981.78;5057025;28;20051;-67
2023/01/21 05:24:22;;;;;;;24.02;15.68;;;;;;;2.01;73.69;101974.00;5075077;28;20044;-67
2023/01/21 05:26:50;;;;;;;22.85;13.75;;;;;;;1.94;72.71;101979.50;5075546;28;20049;-67
2023/01/21 05:29:17;;;;;;;22.80;14.85;;;;;;;1.84;73.36;101981.09;5041522;28;20064;-68
2023/01/21 05:31:44;;;;;;;25.60;15.00;;;;;;;1.89;73.27;101997.53;5068197;28;20056;-67
2023/01/21 05:34:12;;;;;;;23.13;15.73;;;;;;;2.01;73.58;101993.03;5075924;28;20040;-67
2023/01/21 05:36:39;;;;;;;25.50;15.77;;;;;;;1.82;74.21;101994.91;5072422;28;20380;-67
2023/01/21 05:39:07;;;;;;;25.30;16.08;;;;;;;1.98;73.54;101999.75;5075408;28;20048;-67
2023/01/21 05:41:34;;;;;;;25.83;15.32;;;;;;;1.73;74.64;102009.00;5074324;28;20052;-69
2023/01/21 05:44:02;;;;;;;23.13;15.68;;;;;;;1.67;75.14;102005.31;5041945;28;20044;-67
2023/01/21 05:46:29;;;;;;;21.38;15.13;;;;;;;1.86;74.99;102006.16;5074732;28;20049;-68
2023/01/21 05:48:56;;;;;;;24.15;14.90;;;;;;;1.66;75.84;102014.50;5060493;28;20415;-68
2023/01/21 05:51:24;;;;;;;24.80;15.77;;;;;;;1.54;76.58;102023.56;5072122;28;20064;-68
2023/01/21 05:53:51;;;;;;;23.35;16.15;;;;;;;1.44;77.24;102017.81;5076404;28;20056;-68
2023/01/21 05:56:18;;;;;;;23.52;15.65;;;;;;;1.64;76.92;102032.88;5072774;28;20057;-68
2023/01/21 05:58:46;;;;;;;24.65;15.93;;;;;;;1.55;77.46;102033.41;5064776;28;20499;-67
2023/01/21 06:01:13;;;;;;;28.92;15.65;;;;;;;1.83;76.84;102025.63;5058074;28;20067;-67
2023/01/21 06:03:40;;;;;;;25.48;16.90;;;;;;;1.68;77.24;102028.69;5074610;28;20048;-69
2023/01/21 06:06:08;;;;;;;26.17;15.73;;;;;;;1.68;76.90;102034.09;5072008;28;20056;-68
2023/01/21 06:08:35;;;;;;;29.02;16.33;;;;;;;1.75;76.83;102031.31;5091240;28;20060;-68
2023/01/21 06:11:03;;;;;;;22.08;15.63;;;;;;;1.55;76.60;102034.22;5069136;28;20048;-68
2023/01/21 06:13:30;;;;;;;24.17;15.80;;;;;;;1.61;77.14;102035.22;5056665;28;20063;-67
2023/01/21 06:15:57;;;;;;;23.52;15.18;;;;;;;1.31;77.71;102040.47;5060489;28;20045;-67
2023/01/21 06:18:25;;;;;;;22.67;16.02;;;;;;;1.38;78.46;102043.16;5073756;28;20127;-66
2023/01/21 06:20:52;;;;;;;25.17;17.15;;;;;;;1.30;78.14;102040.69;5071648;28;20113;-67
2023/01/21 06:23:20;;;;;;;27.63;16.90;;;;;;;1.54;77.60;102042.59;5055502;28;20049;-67
2023/01/21 06:25:47;;;;;;;22.50;15.20;;;;;;;1.40;77.63;102049.16;5071113;28;20049;-68
2023/01/21 06:28:15;;;;;;;25.58;16.70;;;;;;;1.46;77.65;102053.72;5056123;28;20052;-67
2023/01/21 06:30:42;;;;;;;25.27;17.13;;;;;;;1.33;78.17;102048.38;5059756;28;20036;-67
2023/01/21 06:33:10;;;;;;;27.33;17.58;;;;;;;1.49;78.39;102059.56;5073291;28;20052;-67
2023/01/21 06:35:37;;;;;;;27.00;16.67;;;;;;;1.27;78.48;102063.69;5075460;28;20052;-68
2023/01/21 06:38:05;;;;;;;28.98;18.25;;;;;;;1.40;79.31;102058.16;5056275;28;20052;-69
2023/01/21 06:40:32;;;;;;;27.80;18.05;;;;;;;1.25;79.66;102067.66;5057102;28;20059;-67
2023/01/21 06:43:00;;;;;;;27.42;16.42;;;;;;;1.15;79.76;102058.13;5074910;28;20052;-67
2023/01/21 06:45:28;;;;;;;28.15;18.00;;;;;;;1.28;79.94;102059.91;5075380;28;20055;-67
2023/01/21 06:47:55;;;;;;;29.35;17.73;;;;;;;1.31;79.55;102067.63;5063251;28;20056;-67
2023/01/21 06:50:23;;;;;;;28.52;18.77;;;;;;;1.38;79.38;102068.41;5054703;28;20523;-67
2023/01/21 06:52:50;;;;;;;25.83;16.58;;;;;;;1.52;79.22;102078.09;5067256;28;20056;-67
2023/01/21 06:55:17;;;;;;;28.48;18.60;;;;;;;1.61;79.02;102078.66;5075024;28;20044;-67
2023/01/21 06:57:45;;;;;;;30.20;18.45;;;;;;;1.63;78.54;102090.13;5076114;28;20071;-67
2023/01/21 07:00:12;;;;;;;28.73;19.13;;;;;;;1.72;78.21;102092.38;5073599;28;20523;-67
2023/01/21 07:02:40;;;;;;;28.10;18.17;;;;;;;1.45;78.47;102098.22;5074280;28;20440;-67
2023/01/21 07:05:07;;;;;;;27.30;17.63;;;;;;;1.43;79.56;102103.03;5075138;28;20494;-67
2023/01/21 07:07:35;;;;;;;30.05;20.70;;;;;;;1.25;80.22;102100.22;5059789;28;20567;-68
2023/01/21 07:10:02;;;;;;;30.33;20.35;;;;;;;1.59;79.72;102111.47;5073492;28;20061;-67
2023/01/21 07:12:30;;;;;;;30.85;20.40;;;;;;;1.80;79.27;102105.66;5056662;28;20048;-67
2023/01/21 07:14:57;;;;;;;32.13;20.20;;;;;;;1.48;79.34;102112.19;5074135;28;20055;-67
2023/01/21 07:17:25;;;;;;;33.10;20.75;;;;;;;1.47;79.87;102120.53;5068722;28;20044;-69
2023/01/21 07:19:52;;;;;;;31.67;20.52;;;;;;;1.42;79.50;102123.06;5057339;28;20057;-68
2023/01/21 07:22:20;;;;;;;30.60;19.45;;;;;;;1.53;79.11;102130.53;5063679;28;20064;-68
2023/01/21 07:24:47;;;;;;;33.78;21.95;;;;;;;1.46;79.84;102132.47;5079199;28;20048;-67
2023/01/21 07:27:15;;;;;;;32.05;20.33;;;;;;;1.52;79.22;102135.13;5078846;28;20075;-68
2023/01/21 07:29:42;;;;;;;31.83;20.08;;;;;;;1.85;78.89;102140.28;5057325;28;20048;-68
2023/01/21 07:32:10;;;;;;;35.22;22.00;;;;;;;1.81;78.28;102158.13;5074435;28;20048;-68
2023/01/21 07:34:37;;;;;;;36.97;22.48;;;;;;;1.65;78.56;102151.34;5079221;28;20060;-68
2023/01/21 07:37:05;;;;;;;37.08;22.75;;;;;;;1.75;78.82;102156.25;5053554;28;20052;-67
2023/01/21 07:39:32;;;;;;;36.10;22.77;;;;;;;1.81;78.62;102166.25;5057532;28;20049;-67
2023/01/21 07:42:00;;;;;;;37.17;22.73;;;;;;;2.15;78.43;102163.88;5055596;28;20049;-69
2023/01/21 07:44:27;;;;;;;37.22;22.45;;;;;;;1.59;78.53;102173.09;5055901;28;20091;-69
2023/01/21 07:46:54;;;;;;;36.08;23.15;;;;;;;1.66;79.39;102182.03;5073832;28;20047;-68
2023/01/21 07:49:22;;;;;;;38.72;23.98;;;;;;;1.51;79.11;102174.19;5087581;28;20056;-68
2023/01/21 07:51:49;;;;;;;40.20;24.67;;;;;;;1.37;80.50;102175.31;5078756;28;20456;-68
2023/01/21 07:54:17;;;;;;;39.58;24.45;;;;;;;1.30;80.88;102173.69;5093686;28;20051;-68
2023/01/21 07:56:44;;;;;;;45.55;25.35;;;;;;;1.35;80.51;102180.13;5081213;28;20048;-68
2023/01/21 07:59:12;;;;;;;38.60;23.52;;;;;;;1.30;80.54;102195.41;5064894;28;20075;-68
2023/01/21 08:01:40;;;;;;;40.08;24.55;;;;;;;1.29;81.43;102194.56;5078208;28;20071;-68
2023/01/21 08:04:08;;;;;;;40.30;23.13;;;;;;;1.26;80.17;102202.28;5077505;28;20060;-69
2023/01/21 08:06:40;;;;;;;38.92;24.27;;;;;;;1.54;80.33;102200.06;5076866;28;20056;-68
2023/01/21 08:09:08;;;;;;;48.22;25.83;;;;;;;1.62;79.27;102197.91;5044719;28;20048;-68
2023/01/21 08:11:36;;;;;;;39.47;23.55;;;;;;;1.54;78.94;102200.06;5077001;28;20529;-69
2023/01/21 08:14:04;;;;;;;40.40;24.13;;;;;;;1.71;78.73;102209.38;5075222;28;20407;-68
2023/01/21 08:16:31;;;;;;;47.97;26.00;;;;;;;1.34;79.66;102210.22;5081409;28;20053;-68
2023/01/21 08:18:59;;;;;;;43.90;25.00;;;;;;;1.28;80.84;102221.91;5080716;28;20055;-68
2023/01/21 08:21:26;;;;;;;44.88;26.48;;;;;;;1.40;80.43;102212.88;5069847;28;20044;-69
2023/01/21 08:23:54;;;;;;;42.75;25.25;;;;;;;1.47;79.87;102221.81;5064053;28;20064;-68
2023/01/21 08:26:21;;;;;;;42.53;25.60;;;;;;;1.40;80.02;102221.03;5077421;28;20508;-69
2023/01/21 08:28:55;;;;;;;42.45;26.90;;;;;;;1.62;80.25;102224.25;5058738;28;20045;-68
2023/01/21 08:31:22;;;;;;;42.97;25.48;;;;;;;1.49;79.25;102227.03;5063748;28;20507;-68
2023/01/21 08:33:50;;;;;;;43.53;25.52;;;;;;;1.39;79.32;102222.09;5059275;28;20044;-69
2023/01/21 08:36:17;;;;;;;41.17;26.13;;;;;;;1.56;79.88;102231.38;5055083;28;20032;-69
2023/01/21 08:38:44;;;;;;;40.80;25.15;;;;;;;1.45;79.02;102233.97;5075006;28;20048;-68
2023/01/21 08:41:15;;;;;;;37.75;23.77;;;;;;;2.76;81.15;102231.03;5074019;28;20056;-67
2023/01/21 08:43:42;;;;;;;40.58;24.40;;;;;;;3.82;75.25;102234.97;5076054;28;20049;-67
2023/01/21 08:46:10;;;;;;;39.65;24.80;;;;;;;2.56;77.05;102246.75;5072153;28;20064;-66
2023/01/21 08:48:37;;;;;;;38.38;23.55;;;;;;;2.20;77.85;102247.47;5077568;28;20049;-66
2023/01/21 08:51:05;;;;;;;38.13;24.40;;;;;;;2.45;77.29;102244.75;5076554;28;20052;-69
2023/01/21 08:53:32;;;;;;;40.15;25.38;;;;;;;1.75;76.70;102246.72;5072706;28;20045;-67
2023/01/21 08:56:01;;;;;;;42.67;26.50;;;;;;;1.65;77.87;102259.13;5074231;28;20056;-67
2023/01/21 08:58:29;;;;;;;43.13;26.38;;;;;;;1.58;78.29;102256.44;5067288;28;20052;-66
2023/01/21 09:00:57;;;;;;;44.15;26.02;;;;;;;1.56;78.51;102253.13;5066914;28;20044;-66
2023/01/21 09:03:25;;;;;;;41.33;25.85;;;;;;;1.10;79.99;102263.31;5074417;28;20507;-67
2023/01/21 09:05:53;;;;;;;42.92;26.92;;;;;;;1.13;80.34;102279.19;5074078;28;20048;-68
2023/01/21 09:08:20;;;;;;;45.25;26.65;;;;;;;1.31;79.76;102284.75;5059796;28;20541;-71
2023/01/21 09:10:59;;;;;;;42.13;25.48;;;;;;;1.25;79.15;102266.63;5073847;28;20049;-67
2023/01/21 09:13:29;;;;;;;48.58;28.95;;;;;;;1.52;78.76;102270.03;5075839;28;20040;-66
2023/01/21 09:15:59;;;;;;;47.05;27.40;;;;;;;1.64;78.71;102263.72;5073563;28;20155;-73
2023/01/21 09:18:26;;;;;;;45.88;25.88;;;;;;;1.67;77.32;102282.31;5072217;28;20079;-67
2023/01/21 09:20:59;;;;;;;44.28;27.33;;;;;;;1.76;77.98;102286.41;5076044;28;20377;-71
2023/01/21 09:23:27;;;;;;;46.20;25.98;;;;;;;1.97;76.44;102286.09;5070780;28;20055;-72
2023/01/21 09:26:02;;;;;;;49.20;28.70;;;;;;;2.15;76.39;102288.91;5070232;28;20040;-72
2023/01/21 09:28:33;;;;;;;47.10;26.70;;;;;;;1.83;76.61;102272.81;5065724;28;20064;-73
2023/01/21 09:31:03;;;;;;;45.00;26.92;;;;;;;1.79;76.64;102288.72;5054783;28;20052;-68
2023/01/21 09:33:32;;;;;;;44.45;27.58;;;;;;;1.92;75.98;102280.47;5070221;28;20052;-71
2023/01/21 09:36:02;;;;;;;48.10;26.42;;;;;;;1.84;76.56;102291.63;5054626;28;20067;-70
2023/01/21 09:38:29;;;;;;;43.70;26.42;;;;;;;1.95;75.66;102290.09;5073500;28;20056;-73
2023/01/21 09:41:29;;;;;;;44.55;26.70;;;;;;;1.90;75.73;102287.19;5056293;28;20488;-70
2023/01/21 09:44:01;;;;;;;45.38;26.45;;;;;;;1.80;75.49;102289.53;5072077;28;20064;-71
2023/01/21 09:46:57;;;;;;;41.97;25.35;;;;;;;1.57;76.57;102306.34;5067372;28;20048;-68
2023/01/21 09:49:33;;;;;;;42.22;26.42;;;;;;;1.91;76.38;102306.00;5078312;28;20068;-70
2023/01/21 09:52:12;;;;;;;47.28;26.52;;;;;;;2.03;75.69;102315.13;5071782;28;20045;-69
2023/01/21 09:54:40;;;;;;;43.80;26.10;;;;;;;1.67;75.63;102320.34;5072472;28;20060;-70
2023/01/21 09:57:25;;;;;;;46.78;25.83;;;;;;;1.57;76.20;102329.97;5073832;28;20036;-71
2023/01/21 10:00:15;;;;;;;42.92;26.20;;;;;;;1.89;75.75;102328.97;5053952;28;20392;-73
2023/01/21 10:03:07;;;;;;;46.15;25.77;;;;;;;1.68;76.29;102356.44;5068224;28;20059;-71
2023/01/21 10:05:44;;;;;;;49.92;26.98;;;;;;;1.70;76.52;102357.06;5058930;28;20075;-74
2023/01/21 10:08:23;;;;;;;46.10;27.20;;;;;;;1.90;75.69;102372.22;5068691;28;20068;-75
2023/01/21 10:10:53;;;;;;;48.97;27.17;;;;;;;1.84;75.86;102364.97;5058166;28;20041;-72
2023/01/21 10:13:44;;;;;;;44.47;26.40;;;;;;;1.81;75.56;102368.13;5056603;28;20068;-73
2023/01/21 10:16:34;;;;;;;45.10;26.65;;;;;;;1.83;75.42;102365.19;5052542;28;20040;-76
2023/01/21 10:19:03;;;;;;;42.30;25.75;;;;;;;1.74;75.79;102369.19;5039441;28;20049;-78
2023/01/21 10:21:45;;;;;;;46.47;28.07;;;;;;;1.80;75.54;102365.59;5062919;28;20056;-72
2023/01/21 10:24:50;;;;;;;45.85;26.60;;;;;;;1.94;75.32;102370.75;5054880;28;20447;-72
2023/01/21 10:27:19;;;;;;;43.17;25.67;;;;;;;1.93;75.63;102368.25;5045153;28;20045;-75
2023/01/21 10:29:49;;;;;;;44.38;26.08;;;;;;;2.13;74.47;102372.53;5056360;28;20053;-73
2023/01/21 10:32:21;;;;;;;45.35;26.70;;;;;;;2.27;73.70;102365.13;5057151;28;20138;-74
2023/01/21 10:34:55;;;;;;;46.35;27.02;;;;;;;2.19;73.45;102366.25;5051533;28;20075;-72
2023/01/21 10:37:46;;;;;;;44.30;24.95;;;;;;;2.14;74.25;102352.44;5060438;28;20045;-70
2023/01/21 10:40:43;;;;;;;42.25;25.17;;;;;;;2.37;73.56;102367.38;5061120;28;20052;-71
2023/01/21 10:43:32;;;;;;;46.80;25.63;;;;;;;2.40;72.60;102362.34;5060245;28;20045;-71
2023/01/21 10:46:26;;;;;;;43.28;24.92;;;;;;;2.21;73.11;102368.75;5064593;28;20064;-69
2023/01/21 10:49:15;;;;;;;43.65;24.63;;;;;;;2.32;73.77;102375.38;5067041;28;20043;-69
2023/01/21 10:52:04;;;;;;;43.10;24.58;;;;;;;2.53;72.05;102364.94;5052559;28;20416;-70
2023/01/21 10:54:52;;;;;;;39.28;24.27;;;;;;;2.58;71.86;102367.84;5068086;28;20055;-72
2023/01/21 10:57:33;;;;;;;38.63;22.13;;;;;;;2.42;71.47;102365.69;5061022;28;20049;-74
2023/01/21 11:00:04;;;;;;;38.75;22.70;;;;;;;2.48;71.35;102377.53;5062408;28;20041;-73
2023/01/21 11:02:32;;;;;;;39.70;23.38;;;;;;;2.21;72.21;102385.88;5061900;28;20171;-66
2023/01/21 11:05:01;;;;;;;37.53;22.02;;;;;;;2.48;72.36;102388.41;5058873;28;20069;-69
2023/01/21 11:07:34;;;;;;;;;;;;;;;2.70;70.61;102373.41;5061271;28;20044;-69
2023/01/21 11:10:02;;;;;;;35.60;21.08;;;;;;;2.44;70.96;102395.38;5053646;28;19920;-69
2023/01/21 11:12:31;;;;;;;32.88;20.67;;;;;;;2.18;72.05;102385.47;5041697;28;20052;-70
2023/01/21 11:15:11;;;;;;;39.13;21.23;;;;;;;2.33;71.62;102368.88;5065024;28;20408;-68
2023/01/21 11:17:40;;;;;;;38.85;22.42;;;;;;;2.56;71.25;102374.56;5046304;28;20049;-68
2023/01/21 11:20:22;;;;;;;42.03;21.83;;;;;;;2.22;71.65;102368.53;5061876;28;20527;-69
2023/01/21 11:22:50;;;;;;;39.72;21.73;;;;;;;2.10;72.06;102361.25;5054058;28;20053;-69
2023/01/21 11:25:27;;;;;;;36.58;21.27;;;;;;;2.32;71.92;102372.66;5059957;28;20056;-68
2023/01/21 11:27:54;;;;;;;42.03;24.48;;;;;;;2.46;71.88;102379.66;5061000;28;20037;-69
2023/01/21 11:30:31;;;;;;;40.13;23.77;;;;;;;2.44;71.28;102366.25;5055994;28;20049;-68
2023/01/21 11:33:26;;;;;;;38.05;21.48;;;;;;;2.48;71.18;102367.50;5055520;28;20067;-68
2023/01/21 11:35:54;;;;;;;38.05;21.55;;;;;;;2.51;70.99;102368.97;5050302;28;20522;-69
2023/01/21 11:38:30;;;;;;;38.67;21.88;;;;;;;2.38;71.04;102366.31;5056619;28;20049;-67
2023/01/21 11:41:10;;;;;;;35.97;22.20;;;;;;;2.66;70.98;102366.75;5049315;28;20063;-70
2023/01/21 11:43:49;;;;;;;39.88;22.10;;;;;;;2.87;70.74;102353.59;5054091;28;20079;-72
2023/01/21 11:46:29;;;;;;;40.60;22.83;;;;;;;2.92;70.39;102358.38;5065039;28;20041;-69